Terminal Aerodrome Forecast
Issued by NWS

Home | Current Version | Previous Version | Text Only | Print | Product List | Glossary On
Versions: 1 2 3 4 5 6 7 8 9 10 11 12 13
000
FTUS44 KTSA 312329
TAFMLC
TAF
KMLC 312329Z 0100/0124 02009KT P6SM VCSH BKN110 OVC250
     FM010600 03003KT P6SM OVC050
     FM011200 02003KT P6SM VCSH OVC015 PROB30 0118/0121 3SM -TSRA
      BKN035CB
     FM012100 02005KT P6SM VCSH OVC025 PROB30 0121/0124 3SM -TSRA
      BKN035CB=

USA.gov is the U.S. government's official web portal to all federal, state and local government web resources and services.